createdAt,value
2023-01-04T00:01:23.484Z,0.00
2023-01-04T00:03:51.925Z,0.00
2023-01-04T00:06:20.364Z,0.00
2023-01-04T00:08:48.895Z,0.00
2023-01-04T00:11:19.177Z,0.00
2023-01-04T00:13:49.534Z,0.00
2023-01-04T00:16:19.039Z,0.00
2023-01-04T00:18:47.272Z,0.00
2023-01-04T00:21:16.823Z,0.00
2023-01-04T00:23:46.875Z,0.00
2023-01-04T00:26:15.731Z,0.00
2023-01-04T00:28:48.376Z,0.00
2023-01-04T00:31:21.642Z,0.00
2023-01-04T00:33:50.221Z,0.00
2023-01-04T00:36:18.452Z,0.00
2023-01-04T00:38:46.603Z,0.00
2023-01-04T00:41:34.778Z,0.00
2023-01-04T00:44:04.565Z,0.00
2023-01-04T00:46:34.560Z,0.00
2023-01-04T00:49:02.881Z,0.00
2023-01-04T00:51:32.382Z,0.00
2023-01-04T00:54:02.390Z,0.50
2023-01-04T00:56:31.119Z,0.00
2023-01-04T00:59:00.072Z,0.75
2023-01-04T01:01:29.452Z,1.00
2023-01-04T01:03:59.883Z,0.00
2023-01-04T01:06:28.935Z,0.00
2023-01-04T01:08:57.389Z,0.50
2023-01-04T01:11:25.538Z,1.00
2023-01-04T01:13:53.927Z,3.00
2023-01-04T01:16:44.376Z,3.00
2023-01-04T01:19:12.588Z,2.20
2023-01-04T01:21:40.945Z,3.60
2023-01-04T01:24:09.248Z,0.00
2023-01-04T01:26:37.435Z,0.00
2023-01-04T01:29:05.784Z,4.00
2023-01-04T01:31:33.968Z,0.00
2023-01-04T01:34:03.027Z,1.00
2023-01-04T01:36:32.560Z,2.20
2023-01-04T01:39:00.779Z,0.50
2023-01-04T01:41:29.822Z,0.60
2023-01-04T01:43:59.188Z,1.80
2023-01-04T01:46:30.009Z,1.00
2023-01-04T01:49:00.419Z,0.00
2023-01-04T01:51:29.054Z,0.00
2023-01-04T01:54:03.085Z,0.00
2023-01-04T01:56:34.751Z,1.00
2023-01-04T01:59:03.309Z,0.50
2023-01-04T02:01:31.705Z,0.75
2023-01-04T02:04:00.062Z,1.00
2023-01-04T02:06:31.003Z,1.00
2023-01-04T02:09:01.310Z,0.60
2023-01-04T02:11:29.647Z,0.00
2023-01-04T02:14:16.364Z,1.40
2023-01-04T02:16:56.709Z,0.00
2023-01-04T02:19:36.262Z,0.50
2023-01-04T02:22:22.423Z,0.00
2023-01-04T02:25:03.169Z,0.00
2023-01-04T02:27:42.705Z,0.00
2023-01-04T02:30:29.214Z,1.00
2023-01-04T02:33:20.774Z,1.00
2023-01-04T02:35:55.629Z,0.00
2023-01-04T02:38:26.465Z,0.60
2023-01-04T02:40:58.201Z,0.80
2023-01-04T02:43:45.720Z,0.00
2023-01-04T02:46:16.439Z,1.80
2023-01-04T02:49:03.465Z,3.00
2023-01-04T02:51:32.636Z,3.20
2023-01-04T02:54:02.063Z,2.60
2023-01-04T02:56:39.324Z,1.00
2023-01-04T02:59:16.373Z,1.40
2023-01-04T03:02:05.798Z,1.00
2023-01-04T03:04:59.064Z,0.00
2023-01-04T03:07:29.015Z,2.60
2023-01-04T03:10:04.766Z,1.00
2023-01-04T03:12:34.569Z,2.60
2023-01-04T03:15:05.682Z,1.00
2023-01-04T03:17:37.482Z,3.80
2023-01-04T03:20:08.446Z,3.40
2023-01-04T03:22:58.437Z,2.00
2023-01-04T03:25:44.928Z,3.40
2023-01-04T03:28:32.105Z,4.00
2023-01-04T03:31:19.897Z,5.60
2023-01-04T03:34:06.049Z,4.80
2023-01-04T03:36:45.197Z,1.00
2023-01-04T03:39:34.871Z,1.00
2023-01-04T03:42:23.493Z,4.00
2023-01-04T03:45:13.212Z,3.00
2023-01-04T03:48:04.892Z,0.00
2023-01-04T03:50:38.139Z,3.25
2023-01-04T03:53:08.849Z,4.00
2023-01-04T03:55:38.654Z,4.50
2023-01-04T03:58:07.016Z,3.00
2023-01-04T04:00:35.749Z,4.00
2023-01-04T04:03:08.422Z,1.00
2023-01-04T04:05:56.195Z,0.00
2023-01-04T04:08:27.061Z,1.00
2023-01-04T04:10:55.999Z,1.00
2023-01-04T04:13:24.180Z,1.00
2023-01-04T04:15:53.725Z,1.00
2023-01-04T04:18:21.891Z,1.00
2023-01-04T04:20:50.041Z,0.00
2023-01-04T04:23:18.189Z,3.00
2023-01-04T04:25:47.751Z,1.00
2023-01-04T04:28:15.999Z,1.00
2023-01-04T04:30:44.292Z,0.75
2023-01-04T04:33:12.367Z,1.00
2023-01-04T04:35:40.517Z,1.00
2023-01-04T04:38:08.670Z,1.00
2023-01-04T04:40:54.340Z,1.00
2023-01-04T04:43:23.827Z,1.00
2023-01-04T04:45:51.957Z,1.00
2023-01-04T04:48:20.143Z,0.00
2023-01-04T04:50:48.379Z,1.00
2023-01-04T04:53:16.782Z,0.00
2023-01-04T04:55:44.866Z,1.00
2023-01-04T04:58:13.013Z,0.00
2023-01-04T05:00:43.236Z,0.00
2023-01-04T05:03:11.523Z,0.50
2023-01-04T05:05:39.803Z,0.00
2023-01-04T05:08:08.099Z,0.00
2023-01-04T05:10:36.425Z,0.00
2023-01-04T05:13:05.192Z,0.00
2023-01-04T05:15:34.981Z,0.00
2023-01-04T05:18:04.821Z,0.00
2023-01-04T05:20:33.024Z,0.00
2023-01-04T05:23:01.265Z,0.00
2023-01-04T05:25:29.616Z,0.00
2023-01-04T05:27:57.965Z,0.00
2023-01-04T05:30:43.437Z,0.00
2023-01-04T05:33:13.430Z,0.25
2023-01-04T05:35:41.859Z,0.00
2023-01-04T05:38:10.039Z,0.00
2023-01-04T05:40:38.152Z,0.75
2023-01-04T05:43:06.392Z,0.00
2023-01-04T05:45:34.971Z,0.00
2023-01-04T05:48:03.209Z,0.00
2023-01-04T05:50:32.901Z,0.00
2023-01-04T05:53:05.758Z,0.00
2023-01-04T05:55:34.172Z,0.00
2023-01-04T05:58:02.502Z,0.00
2023-01-04T06:00:30.650Z,0.00
2023-01-04T06:02:58.951Z,0.00
2023-01-04T06:05:27.341Z,0.00
2023-01-04T06:07:56.905Z,0.00
2023-01-04T06:10:25.034Z,0.00
2023-01-04T06:12:53.163Z,0.00
2023-01-04T06:15:21.330Z,0.00
2023-01-04T06:17:49.590Z,0.00
2023-01-04T06:20:17.961Z,0.00
2023-01-04T06:22:46.077Z,0.00
2023-01-04T06:25:15.707Z,0.25
2023-01-04T06:27:43.854Z,0.00
2023-01-04T06:30:12.340Z,0.00
2023-01-04T06:32:40.509Z,0.00
2023-01-04T06:35:08.977Z,0.00
2023-01-04T06:37:37.193Z,0.00
2023-01-04T06:40:05.816Z,0.00
2023-01-04T06:42:47.689Z,0.00
2023-01-04T06:45:16.211Z,0.00
2023-01-04T06:47:44.659Z,0.00
2023-01-04T06:50:12.992Z,0.00
2023-01-04T06:52:41.529Z,0.00
2023-01-04T06:55:10.642Z,0.00
2023-01-04T06:57:40.212Z,0.00
2023-01-04T07:00:10.175Z,0.20
2023-01-04T07:02:38.480Z,0.00
2023-01-04T07:05:07.288Z,0.00
2023-01-04T07:07:35.838Z,0.00
2023-01-04T07:10:09.517Z,0.00
2023-01-04T07:12:39.400Z,0.00
2023-01-04T07:15:38.230Z,0.00
2023-01-04T07:17:58.082Z,0.00
2023-01-04T07:20:26.249Z,0.00
2023-01-04T07:22:54.490Z,0.00
2023-01-04T07:25:22.767Z,0.00
2023-01-04T07:27:52.244Z,0.00
2023-01-04T07:30:22.172Z,0.00
2023-01-04T07:32:50.395Z,0.00
2023-01-04T07:35:18.635Z,0.00
2023-01-04T07:37:49.809Z,0.00
2023-01-04T07:40:22.120Z,0.00
2023-01-04T07:42:55.894Z,0.00
2023-01-04T07:45:25.435Z,0.00
2023-01-04T07:47:53.686Z,0.00
2023-01-04T07:50:21.908Z,0.00
2023-01-04T07:52:50.082Z,0.00
2023-01-04T07:55:18.300Z,0.00
2023-01-04T07:57:46.506Z,0.00
2023-01-04T08:00:15.031Z,0.00
2023-01-04T08:02:44.765Z,0.00
2023-01-04T08:05:13.111Z,0.00
2023-01-04T08:07:41.413Z,0.20
2023-01-04T08:10:09.647Z,0.00
2023-01-04T08:12:37.856Z,0.00
2023-01-04T08:15:06.438Z,0.00
2023-01-04T08:17:34.577Z,0.00
2023-01-04T08:20:04.233Z,0.00
2023-01-04T08:22:32.376Z,0.00
2023-01-04T08:25:00.683Z,0.00
2023-01-04T08:27:28.899Z,0.00
2023-01-04T08:29:57.038Z,0.00
2023-01-04T08:32:25.288Z,0.00
2023-01-04T08:34:54.380Z,0.00
2023-01-04T08:37:24.137Z,0.00
2023-01-04T08:39:52.342Z,0.00
2023-01-04T08:42:28.464Z,0.00
2023-01-04T08:45:01.792Z,0.00
2023-01-04T08:47:33.280Z,0.00
2023-01-04T08:50:08.037Z,0.00
2023-01-04T08:52:40.202Z,0.00
2023-01-04T08:55:13.397Z,0.00
2023-01-04T08:57:43.019Z,0.00
2023-01-04T09:00:12.332Z,0.00
2023-01-04T09:02:40.771Z,0.00
2023-01-04T09:05:09.553Z,0.00
2023-01-04T09:07:39.299Z,0.00
2023-01-04T09:10:07.909Z,0.00
2023-01-04T09:12:36.089Z,0.50
2023-01-04T09:15:04.637Z,0.00
2023-01-04T09:17:33.067Z,0.00
2023-01-04T09:20:01.310Z,0.00
2023-01-04T09:22:29.581Z,0.00
2023-01-04T09:24:59.328Z,0.00
2023-01-04T09:27:27.738Z,0.25
2023-01-04T09:29:55.873Z,0.00
2023-01-04T09:32:24.100Z,1.00
2023-01-04T09:34:52.463Z,0.00
2023-01-04T09:37:20.667Z,1.00
2023-01-04T09:39:48.778Z,0.00
2023-01-04T09:42:21.833Z,0.50
2023-01-04T09:47:42.655Z,0.50
2023-01-04T09:50:14.752Z,1.00
2023-01-04T09:52:48.986Z,0.00
2023-01-04T09:55:39.583Z,1.00
2023-01-04T09:58:14.023Z,1.00
2023-01-04T10:00:45.317Z,1.50
2023-01-04T10:03:16.628Z,3.00
2023-01-04T10:05:44.906Z,0.00
2023-01-04T10:08:15.988Z,3.00
2023-01-04T10:10:49.933Z,3.00
2023-01-04T10:13:28.119Z,2.00
2023-01-04T10:16:02.378Z,3.25
2023-01-04T10:21:34.185Z,1.40
2023-01-04T10:24:13.281Z,3.00
2023-01-04T10:26:46.796Z,1.00
2023-01-04T10:29:38.667Z,3.00
2023-01-04T10:32:13.632Z,4.00
2023-01-04T10:34:43.267Z,6.00
2023-01-04T10:37:14.921Z,2.60
2023-01-04T10:39:43.792Z,0.00
2023-01-04T10:42:17.316Z,3.00
2023-01-04T10:44:53.282Z,1.00
2023-01-04T10:47:24.617Z,0.00
2023-01-04T10:49:55.345Z,0.00
2023-01-04T10:52:27.406Z,0.20
2023-01-04T10:54:58.870Z,0.80
2023-01-04T10:57:28.457Z,1.40
2023-01-04T11:00:01.656Z,1.00
2023-01-04T11:02:37.824Z,3.00
2023-01-04T11:05:13.070Z,1.00
2023-01-04T11:07:43.151Z,0.00
2023-01-04T11:10:15.203Z,1.00
2023-01-04T11:12:43.687Z,3.00
2023-01-04T11:15:13.606Z,1.50
2023-01-04T11:17:42.905Z,3.40
2023-01-04T11:20:11.505Z,3.80
2023-01-04T11:22:42.010Z,2.60
2023-01-04T11:25:36.441Z,1.40
2023-01-04T11:28:10.093Z,4.00
2023-01-04T11:30:46.844Z,1.80
2023-01-04T11:33:17.462Z,3.00
2023-01-04T11:35:46.672Z,1.00
2023-01-04T11:38:16.518Z,2.60
2023-01-04T11:40:56.169Z,1.00
2023-01-04T11:43:25.042Z,0.00
2023-01-04T11:46:02.690Z,3.00
2023-01-04T11:48:38.868Z,1.00
2023-01-04T11:51:17.271Z,0.60
2023-01-04T11:53:45.567Z,1.00
2023-01-04T11:56:21.497Z,0.40
2023-01-04T11:59:08.021Z,1.00
2023-01-04T12:01:38.776Z,0.80
2023-01-04T12:04:12.217Z,0.00
2023-01-04T12:06:42.582Z,1.00
2023-01-04T12:09:14.961Z,3.00
2023-01-04T12:11:44.092Z,1.40
2023-01-04T12:14:19.349Z,1.00
2023-01-04T12:16:52.899Z,3.00
2023-01-04T12:19:22.667Z,1.80
2023-01-04T12:21:52.671Z,0.00
2023-01-04T12:24:22.888Z,0.00
2023-01-04T12:26:52.402Z,2.20
2023-01-04T12:29:43.411Z,1.00
2023-01-04T12:32:30.423Z,0.00
2023-01-04T12:35:00.095Z,1.00
2023-01-04T12:37:46.393Z,3.40
2023-01-04T12:40:29.239Z,1.40
2023-01-04T12:43:15.944Z,1.00
2023-01-04T12:45:44.474Z,3.80
2023-01-04T12:48:44.856Z,3.40
2023-01-04T12:51:32.933Z,2.60
2023-01-04T12:54:02.746Z,3.00
2023-01-04T12:56:45.841Z,1.00
2023-01-04T12:59:25.295Z,2.60
2023-01-04T13:02:12.933Z,1.40
2023-01-04T13:04:42.150Z,1.00
2023-01-04T13:07:15.880Z,1.40
2023-01-04T13:09:48.556Z,3.00
2023-01-04T13:12:21.780Z,1.00
2023-01-04T13:14:51.483Z,1.00
2023-01-04T13:17:21.811Z,0.00
2023-01-04T13:19:50.551Z,1.00
2023-01-04T13:22:29.152Z,1.20
2023-01-04T13:24:58.865Z,3.00
2023-01-04T13:27:27.831Z,1.00
2023-01-04T13:29:56.701Z,1.80
2023-01-04T13:32:25.797Z,0.00
2023-01-04T13:34:55.795Z,1.80
2023-01-04T13:37:28.472Z,0.00
2023-01-04T13:40:02.585Z,1.00
2023-01-04T13:42:33.472Z,1.00
2023-01-04T13:45:20.202Z,3.00
2023-01-04T13:47:51.096Z,1.00
2023-01-04T13:50:26.006Z,0.00
2023-01-04T13:53:06.305Z,1.00
2023-01-04T13:55:36.920Z,1.00
2023-01-04T13:58:06.374Z,0.00
2023-01-04T14:00:42.423Z,1.00
2023-01-04T14:03:22.631Z,1.80
2023-01-04T14:05:52.169Z,1.00
2023-01-04T14:08:22.872Z,1.80
2023-01-04T14:10:51.255Z,1.00
2023-01-04T14:13:20.516Z,0.00
2023-01-04T14:15:48.681Z,1.00
2023-01-04T14:18:27.357Z,0.00
2023-01-04T14:20:55.837Z,1.00
2023-01-04T14:23:30.123Z,0.80
2023-01-04T14:25:58.259Z,2.60
2023-01-04T14:28:28.775Z,1.00
2023-01-04T14:30:58.089Z,3.00
2023-01-04T14:33:30.271Z,1.00
2023-01-04T14:36:05.823Z,3.00
2023-01-04T14:38:38.956Z,3.20
2023-01-04T14:41:20.044Z,0.00
2023-01-04T14:43:49.327Z,1.40
2023-01-04T14:46:17.813Z,3.00
2023-01-04T14:48:46.044Z,2.20
2023-01-04T14:51:16.733Z,2.60
2023-01-04T14:53:46.689Z,0.00
2023-01-04T14:56:22.296Z,1.40
2023-01-04T14:58:53.803Z,1.00
2023-01-04T15:01:22.817Z,1.00
2023-01-04T15:03:55.359Z,3.00
2023-01-04T15:07:17.415Z,0.00
2023-01-04T15:09:48.068Z,2.60
2023-01-04T15:12:18.629Z,3.00
2023-01-04T15:14:46.851Z,0.00
2023-01-04T15:17:15.191Z,2.60
2023-01-04T15:19:43.362Z,3.80
2023-01-04T15:22:11.527Z,3.00
2023-01-04T15:24:39.878Z,2.60
2023-01-04T15:27:09.618Z,3.00
2023-01-04T15:29:37.791Z,4.00
2023-01-04T15:32:06.455Z,4.00
2023-01-04T15:34:34.723Z,6.60
2023-01-04T15:37:02.951Z,5.60
2023-01-04T15:39:31.114Z,6.40
2023-01-04T15:42:16.483Z,5.60
2023-01-04T15:44:46.141Z,5.60
2023-01-04T15:47:14.360Z,4.00
2023-01-04T15:49:42.577Z,3.00
2023-01-04T15:52:10.825Z,6.00
2023-01-04T15:54:39.055Z,5.20
2023-01-04T15:57:07.571Z,1.00
2023-01-04T15:59:35.767Z,3.80
2023-01-04T16:02:05.611Z,4.00
2023-01-04T16:04:33.958Z,3.00
2023-01-04T16:07:02.251Z,3.00
2023-01-04T16:09:30.648Z,0.00
2023-01-04T16:12:16.191Z,0.80
2023-01-04T16:14:44.288Z,3.60
2023-01-04T16:17:13.931Z,3.00
2023-01-04T16:19:42.237Z,4.00
2023-01-04T16:22:10.543Z,4.40
2023-01-04T16:25:10.000Z,3.60
2023-01-04T16:27:34.801Z,4.40
2023-01-04T16:30:03.599Z,3.00
2023-01-04T16:32:34.681Z,4.00
2023-01-04T16:35:04.527Z,4.80
2023-01-04T16:37:32.761Z,3.00
2023-01-04T16:40:09.093Z,4.00
2023-01-04T16:42:37.886Z,2.60
2023-01-04T16:45:07.122Z,6.00
2023-01-04T16:47:39.719Z,4.60
2023-01-04T16:50:10.500Z,6.60
2023-01-04T16:52:39.142Z,6.60
2023-01-04T16:55:08.113Z,4.00
2023-01-04T16:57:36.377Z,6.40
2023-01-04T17:00:06.037Z,6.00
2023-01-04T17:02:34.426Z,3.60
2023-01-04T17:05:02.713Z,8.20
2023-01-04T17:07:33.823Z,6.00
2023-01-04T17:10:02.445Z,9.40
2023-01-04T17:12:48.780Z,10.80
2023-01-04T17:18:06.399Z,9.00
2023-01-04T17:20:34.697Z,13.00
2023-01-04T17:23:04.441Z,4.80
2023-01-04T17:25:32.754Z,6.00
2023-01-04T17:28:01.033Z,7.00
2023-01-04T17:30:29.315Z,6.20
2023-01-04T17:32:57.490Z,9.00
2023-01-04T17:35:25.799Z,5.60
2023-01-04T17:37:53.947Z,1.00
2023-01-04T17:40:23.810Z,8.60
2023-01-04T17:42:52.215Z,7.00
2023-01-04T17:45:20.495Z,6.40
2023-01-04T17:47:49.127Z,12.60
2023-01-04T17:50:18.301Z,20.60
2023-01-04T17:52:47.748Z,12.40
2023-01-04T17:55:16.206Z,18.00
2023-01-04T17:57:46.789Z,12.60
2023-01-04T18:00:16.234Z,10.40
2023-01-04T18:02:45.016Z,13.00
2023-01-04T18:05:13.467Z,12.00
2023-01-04T18:07:41.618Z,13.00
2023-01-04T18:10:20.643Z,12.80
2023-01-04T18:12:56.490Z,12.20
2023-01-04T18:15:25.838Z,2.60
2023-01-04T18:17:54.037Z,10.60
2023-01-04T18:20:25.016Z,12.80
2023-01-04T18:22:53.675Z,9.40
2023-01-04T18:25:21.953Z,7.00
2023-01-04T18:27:50.183Z,10.00
2023-01-04T18:30:20.041Z,6.00
2023-01-04T18:32:48.787Z,7.80
2023-01-04T18:35:17.156Z,7.80
2023-01-04T18:37:51.635Z,11.60
2023-01-04T18:40:20.227Z,10.20
2023-01-04T18:42:48.833Z,10.00
2023-01-04T18:45:17.197Z,10.80
2023-01-04T18:47:48.350Z,7.20
2023-01-04T18:50:17.219Z,13.00
2023-01-04T18:52:45.397Z,12.20
2023-01-04T18:55:13.590Z,3.20
2023-01-04T18:57:41.896Z,13.40
2023-01-04T19:00:10.940Z,9.20
2023-01-04T19:02:39.393Z,13.00
2023-01-04T19:05:09.513Z,11.60
2023-01-04T19:07:38.966Z,12.80
2023-01-04T19:10:08.373Z,3.60
2023-01-04T19:12:38.988Z,7.00
2023-01-04T19:15:08.393Z,12.00
2023-01-04T19:17:36.882Z,13.80
2023-01-04T19:20:05.872Z,12.00
2023-01-04T19:22:36.057Z,10.80
2023-01-04T19:25:04.390Z,13.00
2023-01-04T19:27:32.768Z,10.20
2023-01-04T19:30:01.239Z,7.80
2023-01-04T19:32:33.847Z,11.20
2023-01-04T19:35:02.604Z,9.80
2023-01-04T19:37:32.675Z,7.00
2023-01-04T19:40:02.397Z,7.00
2023-01-04T19:42:32.290Z,9.00
2023-01-04T19:45:00.377Z,9.00
2023-01-04T19:47:28.571Z,7.00
2023-01-04T19:49:57.924Z,6.50
2023-01-04T19:52:26.199Z,6.60
2023-01-04T19:54:54.367Z,5.50
2023-01-04T19:57:25.014Z,4.00
2023-01-04T19:59:53.231Z,6.00
2023-01-04T20:02:21.670Z,6.00
2023-01-04T20:04:50.321Z,5.50
2023-01-04T20:07:18.509Z,6.00
2023-01-04T20:09:48.765Z,4.00
2023-01-04T20:12:16.932Z,5.60
2023-01-04T20:14:47.039Z,4.80
2023-01-04T20:17:15.708Z,3.80
2023-01-04T20:19:43.874Z,6.00
2023-01-04T20:22:11.997Z,4.00
2023-01-04T20:24:40.183Z,3.00
2023-01-04T20:27:08.413Z,6.00
2023-01-04T20:29:36.617Z,6.00
2023-01-04T20:32:06.722Z,3.50
2023-01-04T20:34:36.093Z,4.00
2023-01-04T20:37:04.600Z,4.00
2023-01-04T20:39:32.842Z,3.00
2023-01-04T20:42:18.290Z,3.00
2023-01-04T20:44:46.452Z,3.00
2023-01-04T20:47:16.002Z,3.00
2023-01-04T20:49:44.257Z,4.00
2023-01-04T20:52:12.661Z,3.00
2023-01-04T20:54:40.790Z,4.00
2023-01-04T20:57:08.937Z,3.00
2023-01-04T20:59:37.034Z,3.00
2023-01-04T21:02:05.402Z,2.25
2023-01-04T21:04:35.349Z,3.25
2023-01-04T21:07:03.543Z,0.00
2023-01-04T21:09:31.655Z,4.00
2023-01-04T21:12:04.962Z,4.00
2023-01-04T21:14:38.274Z,3.00
2023-01-04T21:17:06.718Z,1.00
2023-01-04T21:19:36.356Z,2.00
2023-01-04T21:22:04.551Z,3.00
2023-01-04T21:24:33.226Z,2.50
2023-01-04T21:27:01.556Z,3.00
2023-01-04T21:29:29.984Z,3.50
2023-01-04T21:31:58.696Z,3.00
2023-01-04T21:34:28.241Z,3.00
2023-01-04T21:36:57.990Z,1.00
2023-01-04T21:39:26.092Z,2.50
2023-01-04T21:41:54.473Z,3.00
2023-01-04T21:44:22.711Z,0.00
2023-01-04T21:46:50.975Z,3.00
2023-01-04T21:49:19.173Z,0.75
2023-01-04T21:51:47.265Z,0.00
2023-01-04T21:54:16.811Z,3.00
2023-01-04T21:56:45.268Z,1.00
2023-01-04T21:59:13.534Z,0.50
2023-01-04T22:01:42.848Z,0.50
2023-01-04T22:04:11.323Z,1.50
2023-01-04T22:06:40.495Z,0.50
2023-01-04T22:09:08.603Z,1.00
2023-01-04T22:11:38.168Z,1.00
2023-01-04T22:14:06.322Z,0.00
2023-01-04T22:16:34.708Z,2.00
2023-01-04T22:19:02.895Z,0.00
2023-01-04T22:21:31.440Z,1.00
2023-01-04T22:23:59.699Z,1.00
2023-01-04T22:26:27.941Z,1.00
2023-01-04T22:28:57.447Z,2.00
2023-01-04T22:31:25.670Z,0.00
2023-01-04T22:33:54.002Z,1.00
2023-01-04T22:36:50.486Z,0.50
2023-01-04T22:39:18.798Z,0.00
2023-01-04T22:41:46.992Z,1.50
2023-01-04T22:44:17.045Z,0.00
2023-01-04T22:46:45.215Z,0.00
2023-01-04T22:49:13.424Z,0.00
2023-01-04T22:51:41.574Z,0.00
2023-01-04T22:54:10.647Z,0.00
2023-01-04T22:56:38.845Z,0.00
2023-01-04T22:59:07.028Z,0.00
2023-01-04T23:01:36.678Z,0.00
2023-01-04T23:04:05.047Z,0.00
2023-01-04T23:06:33.623Z,0.00
2023-01-04T23:09:02.881Z,0.75
2023-01-04T23:11:31.801Z,0.50
2023-01-04T23:14:00.323Z,0.00
2023-01-04T23:16:32.742Z,0.00
2023-01-04T23:19:03.611Z,0.00
2023-01-04T23:21:32.361Z,0.00
2023-01-04T23:24:00.615Z,0.25
2023-01-04T23:26:29.436Z,0.00
2023-01-04T23:28:57.966Z,0.00
2023-01-04T23:31:27.455Z,0.00
2023-01-04T23:33:56.996Z,0.00
2023-01-04T23:36:27.341Z,0.00
2023-01-04T23:38:56.261Z,0.00
2023-01-04T23:41:44.870Z,0.00
2023-01-04T23:44:14.634Z,0.00
2023-01-04T23:46:42.876Z,0.00
2023-01-04T23:49:11.139Z,0.00
2023-01-04T23:51:42.756Z,0.00
2023-01-04T23:54:11.343Z,0.00
2023-01-04T23:56:40.015Z,0.00
2023-01-04T23:59:08.370Z,0.00
